Time;durP1;ratioP1;P1;durP2;ratioP2;P2;SDS_P1;SDS_P2;PMS_P1;PMS_P2;Temp;Humidity;BMP_temperature;BMP_pressure;BME280_temperature;BME280_humidity;BME280_pressure;Samples;Min_cycle;Max_cycle;Signal;HPM_P1;HPM_P2
2022/11/23 00:00:46;;;;;;;16.48;3.42;;;10.10;99.90;;;;;;5104532;28;20028;-71
2022/11/23 00:03:15;;;;;;;14.95;2.80;;;10.10;99.90;;;;;;5107643;28;20107;-71
2022/11/23 00:05:40;;;;;;;10.07;2.33;;;10.10;99.90;;;;;;5109066;28;20128;-72
2022/11/23 00:08:06;;;;;;;16.42;3.08;;;10.10;99.90;;;;;;5110716;28;20031;-72
2022/11/23 00:10:32;;;;;;;12.82;2.60;;;10.20;99.90;;;;;;5106114;28;20035;-72
2022/11/23 00:12:57;;;;;;;15.45;2.90;;;10.10;99.90;;;;;;5099518;28;20046;-71
2022/11/23 00:15:23;;;;;;;11.35;3.25;;;10.10;99.90;;;;;;5103688;28;20062;-71
2022/11/23 00:17:49;;;;;;;14.43;2.58;;;10.10;99.90;;;;;;5110430;28;20062;-71
2022/11/23 00:20:15;;;;;;;13.35;2.58;;;10.10;99.90;;;;;;5105318;28;20020;-71
2022/11/23 00:22:41;;;;;;;13.48;2.83;;;10.10;99.90;;;;;;5109824;28;20160;-71
2022/11/23 00:25:08;;;;;;;14.32;3.13;;;10.10;99.90;;;;;;5103036;28;20077;-72
2022/11/23 00:27:33;;;;;;;13.85;3.28;;;10.10;99.90;;;;;;5102574;28;20032;-71
2022/11/23 00:29:59;;;;;;;19.00;3.90;;;10.20;99.90;;;;;;5105447;28;20115;-72
2022/11/23 00:32:26;;;;;;;14.23;2.83;;;10.20;99.90;;;;;;5099965;28;20030;-72
2022/11/23 00:34:51;;;;;;;13.73;3.00;;;10.20;99.90;;;;;;5104617;28;20472;-72
2022/11/23 00:37:17;;;;;;;15.52;3.08;;;10.10;99.90;;;;;;5102404;28;20036;-72
2022/11/23 00:39:43;;;;;;;18.23;2.78;;;10.10;99.90;;;;;;5090834;28;20020;-71
2022/11/23 00:42:08;;;;;;;13.63;2.30;;;10.10;99.90;;;;;;5104954;28;20040;-72
2022/11/23 00:44:34;;;;;;;13.63;3.03;;;10.20;99.90;;;;;;5105384;28;20054;-72
2022/11/23 00:47:00;;;;;;;13.38;3.05;;;10.20;99.90;;;;;;5106884;28;20063;-72
2022/11/23 00:49:25;;;;;;;15.43;3.13;;;10.30;99.90;;;;;;5110245;28;20073;-71
2022/11/23 00:51:51;;;;;;;10.98;2.50;;;10.30;99.90;;;;;;5100811;28;20461;-71
2022/11/23 00:54:16;;;;;;;13.25;2.53;;;10.30;99.90;;;;;;5111597;28;20031;-71
2022/11/23 00:56:42;;;;;;;10.65;2.22;;;10.30;99.90;;;;;;5110798;28;20064;-72
2022/11/23 00:59:08;;;;;;;10.80;2.40;;;10.30;99.90;;;;;;5111752;28;20028;-72
2022/11/23 01:01:37;;;;;;;11.57;2.67;;;10.30;99.90;;;;;;5106970;28;20032;-72
2022/11/23 01:04:06;;;;;;;13.93;2.42;;;10.30;99.90;;;;;;5110639;28;20484;-71
2022/11/23 01:06:34;;;;;;;11.38;2.42;;;10.30;99.90;;;;;;5107441;28;20030;-72
2022/11/23 01:09:17;;;;;;;12.45;2.70;;;10.20;99.90;;;;;;5109455;28;20024;-71
2022/11/23 01:11:43;;;;;;;9.73;2.42;;;10.30;99.90;;;;;;5111710;28;20129;-72
2022/11/23 01:14:09;;;;;;;8.95;2.33;;;10.30;99.90;;;;;;5112185;28;20027;-71
2022/11/23 01:16:39;;;;;;;12.95;2.65;;;10.30;99.90;;;;;;5109974;28;20034;-71
2022/11/23 01:19:10;;;;;;;12.35;2.65;;;10.30;99.90;;;;;;5112116;28;20400;-73
2022/11/23 01:21:36;;;;;;;12.00;2.53;;;10.30;99.90;;;;;;5109094;28;20036;-71
2022/11/23 01:24:10;;;;;;;15.35;3.42;;;10.30;99.90;;;;;;5096620;28;20372;-72
2022/11/23 01:26:36;;;;;;;10.23;2.70;;;10.30;99.90;;;;;;5110922;28;20111;-72
2022/11/23 01:29:01;;;;;;;14.68;2.92;;;10.30;99.90;;;;;;5111173;28;20475;-71
2022/11/23 01:31:27;;;;;;;14.57;2.92;;;10.30;99.90;;;;;;5110697;28;20023;-72
2022/11/23 01:33:57;;;;;;;11.10;3.05;;;10.30;99.90;;;;;;5090778;28;20038;-73
2022/11/23 01:36:25;;;;;;;6.57;2.55;;;10.30;99.90;;;;;;5105613;28;20024;-72
2022/11/23 01:38:51;;;;;;;13.55;2.95;;;10.30;99.90;;;;;;5105521;28;20024;-72
2022/11/23 01:41:25;;;;;;;13.20;2.47;;;10.30;99.90;;;;;;5108750;28;20037;-72
2022/11/23 01:43:51;;;;;;;15.82;3.22;;;10.30;99.90;;;;;;5105029;28;20103;-72
2022/11/23 01:46:17;;;;;;;13.93;3.15;;;10.30;99.90;;;;;;5108855;28;20055;-72
2022/11/23 01:49:00;;;;;;;12.68;2.88;;;10.30;99.90;;;;;;5105270;28;20452;-71
2022/11/23 01:51:40;;;;;;;12.95;2.65;;;10.20;99.90;;;;;;5089351;28;20027;-72
2022/11/23 01:54:23;;;;;;;16.60;3.25;;;10.30;99.90;;;;;;5109289;28;20026;-71
2022/11/23 01:56:59;;;;;;;10.20;2.75;;;10.30;99.90;;;;;;5105266;28;20106;-71
2022/11/23 01:59:26;;;;;;;20.17;3.00;;;10.30;99.90;;;;;;5103914;28;20043;-72
2022/11/23 02:01:52;;;;;;;15.13;3.20;;;10.30;99.90;;;;;;5109534;28;20024;-71
2022/11/23 02:04:32;;;;;;;19.02;3.60;;;10.30;99.90;;;;;;5108773;28;20030;-72
2022/11/23 02:07:00;;;;;;;16.08;3.50;;;10.30;99.90;;;;;;5108027;28;20026;-72
2022/11/23 02:09:29;;;;;;;19.23;3.20;;;10.30;99.90;;;;;;5112488;28;20028;-71
2022/11/23 02:11:55;;;;;;;14.73;3.28;;;10.20;99.90;;;;;;5113804;27;20027;-72
2022/11/23 02:14:21;;;;;;;15.13;3.00;;;10.30;99.90;;;;;;5088664;28;20031;-72
2022/11/23 02:16:46;;;;;;;12.98;3.38;;;10.30;99.90;;;;;;5110321;28;20031;-72
2022/11/23 02:19:50;;;;;;;15.50;3.28;;;10.20;99.90;;;;;;5104015;28;20032;-71
2022/11/23 02:22:41;;;;;;;13.82;3.08;;;10.20;99.90;;;;;;5099521;28;20067;-71
2022/11/23 02:25:16;;;;;;;16.05;3.22;;;10.20;99.90;;;;;;5099115;28;20476;-72
2022/11/23 02:27:41;;;;;;;10.50;3.05;;;10.20;99.90;;;;;;5098745;28;20019;-71
2022/11/23 02:30:08;;;;;;;14.05;3.10;;;10.20;99.90;;;;;;5094102;28;20036;-71
2022/11/23 02:32:34;;;;;;;12.02;2.83;;;10.30;99.90;;;;;;5112013;28;20024;-71
2022/11/23 02:34:59;;;;;;;20.58;3.88;;;10.30;99.90;;;;;;5102458;28;20022;-71
2022/11/23 02:37:25;;;;;;;12.85;3.28;;;10.20;99.90;;;;;;5109964;28;20398;-71
2022/11/23 02:39:53;;;;;;;13.43;3.53;;;10.30;99.90;;;;;;5108942;28;20442;-72
2022/11/23 02:42:19;;;;;;;20.20;3.67;;;10.30;99.90;;;;;;5111737;28;20414;-71
2022/11/23 02:45:10;;;;;;;15.75;2.83;;;10.30;99.90;;;;;;5103761;28;20015;-72
2022/11/23 02:47:35;;;;;;;13.68;3.28;;;10.30;99.90;;;;;;5109085;28;20027;-71
2022/11/23 02:50:01;;;;;;;14.30;3.22;;;10.30;99.90;;;;;;5103641;28;20085;-71
2022/11/23 02:52:26;;;;;;;16.13;3.25;;;10.30;99.90;;;;;;5100686;28;20031;-72
2022/11/23 02:54:52;;;;;;;13.40;3.10;;;10.20;99.90;;;;;;5108793;28;20024;-72
2022/11/23 02:57:18;;;;;;;17.70;2.90;;;10.20;99.90;;;;;;5111593;28;20101;-72
2022/11/23 02:59:43;;;;;;;18.05;3.53;;;10.10;99.90;;;;;;5111791;28;20059;-71
2022/11/23 03:02:09;;;;;;;15.40;3.08;;;10.20;99.90;;;;;;5107735;28;20032;-72
2022/11/23 03:04:34;;;;;;;14.90;3.28;;;10.20;99.90;;;;;;5109098;28;20102;-72
2022/11/23 03:07:00;;;;;;;13.32;3.50;;;10.30;99.90;;;;;;5089468;28;20072;-72
2022/11/23 03:09:27;;;;;;;14.70;2.92;;;10.30;99.90;;;;;;5089066;28;20028;-72
2022/11/23 03:11:53;;;;;;;18.25;2.80;;;10.30;99.90;;;;;;5108697;28;20073;-72
2022/11/23 03:14:18;;;;;;;17.83;3.40;;;10.30;99.90;;;;;;5103740;28;20363;-72
2022/11/23 03:16:44;;;;;;;17.40;4.18;;;10.20;99.90;;;;;;5103736;28;20443;-72
2022/11/23 03:19:10;;;;;;;16.67;3.28;;;10.20;99.90;;;;;;5107814;28;20031;-72
2022/11/23 03:21:36;;;;;;;13.82;3.03;;;10.20;99.90;;;;;;5102443;28;20127;-71
2022/11/23 03:24:01;;;;;;;15.13;3.47;;;10.20;99.90;;;;;;5107087;28;20080;-72
2022/11/23 03:26:27;;;;;;;14.02;3.10;;;10.20;99.90;;;;;;5099645;28;20032;-72
2022/11/23 03:28:53;;;;;;;19.45;3.75;;;10.30;99.90;;;;;;5104345;28;20059;-72
2022/11/23 03:31:18;;;;;;;19.50;3.25;;;10.30;99.90;;;;;;5108887;28;20066;-72
2022/11/23 03:33:44;;;;;;;15.48;3.95;;;10.30;99.90;;;;;;5103178;28;20030;-72
2022/11/23 03:36:09;;;;;;;22.10;4.60;;;10.30;99.90;;;;;;5109039;28;20405;-72
2022/11/23 03:38:35;;;;;;;15.35;3.30;;;10.30;99.90;;;;;;5100561;28;20034;-72
2022/11/23 03:41:00;;;;;;;17.75;3.67;;;10.30;99.90;;;;;;5106914;28;20016;-72
2022/11/23 03:43:26;;;;;;;21.98;3.72;;;10.20;99.90;;;;;;5089674;28;20472;-72
2022/11/23 03:45:52;;;;;;;16.42;3.33;;;10.20;99.90;;;;;;5109404;28;20112;-72
2022/11/23 03:48:17;;;;;;;15.20;3.15;;;10.30;99.90;;;;;;5104758;28;20028;-72
2022/11/23 03:50:43;;;;;;;17.65;3.70;;;10.30;99.90;;;;;;5110671;28;20035;-71
2022/11/23 03:53:09;;;;;;;17.27;3.38;;;10.20;99.90;;;;;;5106523;28;20032;-72
2022/11/23 03:55:35;;;;;;;21.27;3.35;;;10.30;99.90;;;;;;5109448;28;20491;-72
2022/11/23 03:58:00;;;;;;;17.25;3.28;;;10.30;99.90;;;;;;5112105;28;20023;-72
2022/11/23 04:00:27;;;;;;;13.70;3.42;;;10.30;99.90;;;;;;5107094;27;20365;-72
2022/11/23 04:02:53;;;;;;;23.33;4.20;;;10.30;99.90;;;;;;5106602;28;20039;-72
2022/11/23 04:05:19;;;;;;;12.52;3.08;;;10.20;99.90;;;;;;5111620;28;20023;-72
2022/11/23 04:07:48;;;;;;;18.05;3.85;;;10.10;99.90;;;;;;5102935;28;20077;-71
2022/11/23 04:10:15;;;;;;;23.17;3.58;;;10.20;99.90;;;;;;5103063;28;20032;-72
2022/11/23 04:12:41;;;;;;;14.88;3.92;;;10.20;99.90;;;;;;5098338;28;20047;-72
2022/11/23 04:15:07;;;;;;;26.58;4.15;;;10.10;99.90;;;;;;5104466;28;20059;-72
2022/11/23 04:17:33;;;;;;;13.73;3.42;;;10.10;99.90;;;;;;5109926;28;20046;-72
2022/11/23 04:19:58;;;;;;;18.30;3.45;;;10.20;99.90;;;;;;5109055;27;20495;-72
2022/11/23 04:22:24;;;;;;;27.45;3.70;;;10.20;99.90;;;;;;5101159;28;20043;-71
2022/11/23 04:24:49;;;;;;;15.50;2.92;;;10.10;99.90;;;;;;5103824;28;20027;-72
2022/11/23 04:27:15;;;;;;;19.52;4.10;;;10.10;99.90;;;;;;5104542;28;20491;-72
2022/11/23 04:29:40;;;;;;;19.90;4.13;;;10.10;99.90;;;;;;5111046;28;20027;-71
2022/11/23 04:32:06;;;;;;;18.70;3.20;;;10.10;99.90;;;;;;5100244;28;20020;-72
2022/11/23 04:34:32;;;;;;;14.43;3.30;;;10.20;99.90;;;;;;5102096;28;20372;-71
2022/11/23 04:36:57;;;;;;;12.63;3.50;;;10.20;99.90;;;;;;5103279;28;20028;-72
2022/11/23 04:39:23;;;;;;;22.92;4.25;;;10.10;99.90;;;;;;5108821;28;20482;-72
2022/11/23 04:41:48;;;;;;;20.30;3.53;;;10.10;99.90;;;;;;5104059;28;20070;-72
2022/11/23 04:44:14;;;;;;;16.45;3.63;;;10.10;99.90;;;;;;5104162;28;20373;-72
2022/11/23 04:46:39;;;;;;;22.48;3.63;;;10.10;99.90;;;;;;5108597;28;20036;-72
2022/11/23 04:49:05;;;;;;;20.60;2.95;;;10.10;99.90;;;;;;5101302;28;20027;-72
2022/11/23 04:51:31;;;;;;;19.60;3.00;;;10.10;99.90;;;;;;5104190;28;20032;-72
2022/11/23 04:53:57;;;;;;;15.63;2.90;;;10.00;99.90;;;;;;5106817;28;20530;-72
2022/11/23 04:56:22;;;;;;;18.30;3.38;;;10.10;99.90;;;;;;5102598;28;20469;-72
2022/11/23 04:58:48;;;;;;;16.85;3.97;;;10.00;99.90;;;;;;5106682;28;20048;-73
2022/11/23 05:01:13;;;;;;;16.63;3.28;;;9.90;99.90;;;;;;5106186;28;20369;-71
2022/11/23 05:03:39;;;;;;;24.30;3.10;;;9.90;99.90;;;;;;5102342;28;20070;-71
2022/11/23 05:06:06;;;;;;;17.63;3.50;;;9.90;99.90;;;;;;5099534;28;20057;-72
2022/11/23 05:08:31;;;;;;;18.58;3.28;;;9.90;99.90;;;;;;5105797;28;20034;-72
2022/11/23 05:10:57;;;;;;;17.52;3.80;;;9.90;99.90;;;;;;5103026;28;20031;-72
2022/11/23 05:13:23;;;;;;;20.60;3.83;;;9.80;99.90;;;;;;5108058;28;20071;-72
2022/11/23 05:15:49;;;;;;;18.70;2.80;;;9.90;99.90;;;;;;5104291;28;20377;-71
2022/11/23 05:18:14;;;;;;;17.35;2.78;;;9.80;99.90;;;;;;5107297;28;20039;-72
2022/11/23 05:20:40;;;;;;;25.15;3.45;;;9.90;99.90;;;;;;5106164;28;20024;-72
2022/11/23 05:23:05;;;;;;;20.75;3.28;;;9.80;99.90;;;;;;5105981;28;20081;-72
2022/11/23 05:25:31;;;;;;;16.10;2.95;;;9.90;99.90;;;;;;5106039;28;20086;-71
2022/11/23 05:27:57;;;;;;;21.10;3.70;;;9.80;99.90;;;;;;5106039;28;20027;-72
2022/11/23 05:30:23;;;;;;;11.38;2.85;;;9.80;99.90;;;;;;5102645;28;20020;-72
2022/11/23 05:32:48;;;;;;;23.05;3.15;;;9.90;99.90;;;;;;5105748;28;20024;-71
2022/11/23 05:35:14;;;;;;;20.52;3.45;;;9.90;99.90;;;;;;5104747;28;20031;-71
2022/11/23 05:37:40;;;;;;;17.17;3.50;;;9.90;99.90;;;;;;5107818;28;20027;-71
2022/11/23 05:40:07;;;;;;;19.23;3.65;;;9.90;99.90;;;;;;5105811;28;20063;-71
2022/11/23 05:42:32;;;;;;;19.38;3.78;;;9.90;99.90;;;;;;5104577;28;20039;-71
2022/11/23 05:44:58;;;;;;;15.65;2.75;;;9.90;99.90;;;;;;5111803;28;20023;-71
2022/11/23 05:47:23;;;;;;;15.13;3.20;;;9.90;99.90;;;;;;5112542;28;20468;-71
2022/11/23 05:49:49;;;;;;;19.23;3.78;;;9.90;99.90;;;;;;5115584;28;20037;-71
2022/11/23 05:52:16;;;;;;;25.52;3.65;;;9.90;99.90;;;;;;5106359;28;20038;-71
2022/11/23 05:54:41;;;;;;;21.30;3.25;;;9.90;99.90;;;;;;5105790;28;20020;-71
2022/11/23 05:57:07;;;;;;;13.73;3.03;;;10.00;99.90;;;;;;5114469;28;20035;-71
2022/11/23 05:59:33;;;;;;;18.23;3.22;;;9.90;99.90;;;;;;5111663;28;20031;-72
2022/11/23 06:01:59;;;;;;;16.90;3.35;;;9.90;99.90;;;;;;5089865;28;20039;-71
2022/11/23 06:04:24;;;;;;;17.30;3.70;;;10.00;99.90;;;;;;5110356;28;20023;-72
2022/11/23 06:06:53;;;;;;;17.83;3.50;;;9.90;99.90;;;;;;5110018;28;20070;-71
2022/11/23 06:09:19;;;;;;;17.65;2.90;;;9.80;99.90;;;;;;5105082;28;20023;-71
2022/11/23 06:11:47;;;;;;;11.15;2.63;;;9.90;99.90;;;;;;5108462;28;20474;-72
2022/11/23 06:14:12;;;;;;;25.05;3.33;;;9.90;99.90;;;;;;5111426;28;20080;-71
2022/11/23 06:16:38;;;;;;;17.38;3.17;;;9.90;99.90;;;;;;5103642;28;20028;-71
2022/11/23 06:19:04;;;;;;;26.35;3.95;;;9.90;99.90;;;;;;5113078;28;20023;-71
2022/11/23 06:21:29;;;;;;;14.98;2.78;;;9.90;99.90;;;;;;5107876;28;20039;-71
2022/11/23 06:23:55;;;;;;;20.58;3.15;;;10.00;99.90;;;;;;5103439;28;20077;-71
2022/11/23 06:26:20;;;;;;;18.58;3.00;;;9.90;99.90;;;;;;5108799;28;20034;-71
2022/11/23 06:28:46;;;;;;;21.30;3.85;;;9.80;99.90;;;;;;5112892;28;20024;-71
2022/11/23 06:31:11;;;;;;;14.80;2.92;;;9.70;99.90;;;;;;5104948;28;20106;-71
2022/11/23 06:33:37;;;;;;;19.88;3.80;;;9.80;99.90;;;;;;5106937;28;20024;-72
2022/11/23 06:36:03;;;;;;;17.17;3.70;;;9.80;99.90;;;;;;5106244;28;20084;-71
2022/11/23 06:38:29;;;;;;;16.48;2.92;;;9.80;99.90;;;;;;5107408;28;20032;-71
2022/11/23 06:40:59;;;;;;;11.25;2.40;;;9.80;99.90;;;;;;5093582;28;20039;-71
2022/11/23 06:43:25;;;;;;;14.93;2.88;;;9.70;99.90;;;;;;5110989;28;20388;-71
2022/11/23 06:45:50;;;;;;;16.98;3.03;;;9.60;99.90;;;;;;5108146;28;20491;-71
2022/11/23 06:48:16;;;;;;;22.33;3.40;;;9.50;99.90;;;;;;5102620;27;20020;-71
2022/11/23 06:50:41;;;;;;;12.52;2.80;;;9.50;99.90;;;;;;5104601;28;20418;-72
2022/11/23 06:53:11;;;;;;;20.02;3.40;;;9.40;99.90;;;;;;5107043;27;20024;-72
2022/11/23 06:55:37;;;;;;;18.02;2.55;;;9.50;99.90;;;;;;5108337;28;20563;-74
2022/11/23 06:58:03;;;;;;;19.27;3.20;;;9.50;99.90;;;;;;5111091;28;20031;-72
2022/11/23 07:00:28;;;;;;;17.63;3.28;;;9.40;99.90;;;;;;5107648;28;20020;-71
2022/11/23 07:02:54;;;;;;;20.80;4.07;;;9.40;99.90;;;;;;5103083;28;20451;-71
2022/11/23 07:05:21;;;;;;;13.40;2.53;;;9.40;99.90;;;;;;5109298;28;20480;-72
2022/11/23 07:07:47;;;;;;;18.85;3.33;;;9.40;99.90;;;;;;5105049;28;20594;-72
2022/11/23 07:10:13;;;;;;;22.02;4.07;;;9.50;99.90;;;;;;5111514;28;20019;-71
2022/11/23 07:12:39;;;;;;;21.88;3.40;;;9.40;99.90;;;;;;5109938;28;20063;-71
2022/11/23 07:15:06;;;;;;;18.95;4.07;;;9.50;99.90;;;;;;5106627;28;20028;-72
2022/11/23 07:17:36;;;;;;;19.90;3.65;;;9.40;99.90;;;;;;5107900;28;20023;-73
2022/11/23 07:20:02;;;;;;;19.55;3.47;;;9.30;99.90;;;;;;5111627;28;20069;-71
2022/11/23 07:22:28;;;;;;;13.07;3.33;;;9.30;99.90;;;;;;5103199;28;20031;-71
2022/11/23 07:24:53;;;;;;;15.65;2.53;;;9.40;99.90;;;;;;5103733;28;20345;-71
2022/11/23 07:27:19;;;;;;;14.93;2.80;;;9.30;99.90;;;;;;5086337;28;20066;-71
2022/11/23 07:29:44;;;;;;;16.38;3.88;;;9.30;99.90;;;;;;5106547;28;20034;-71
2022/11/23 07:32:10;;;;;;;24.30;4.03;;;9.30;99.90;;;;;;5106028;28;20031;-71
2022/11/23 07:34:36;;;;;;;23.42;3.78;;;9.20;99.90;;;;;;5111354;28;20027;-72
2022/11/23 07:37:03;;;;;;;19.65;3.80;;;9.20;99.90;;;;;;5108858;28;20015;-71
2022/11/23 07:39:29;;;;;;;17.42;3.00;;;9.10;99.90;;;;;;5101931;28;20026;-71
2022/11/23 07:41:55;;;;;;;17.73;3.35;;;9.20;99.90;;;;;;5104713;27;20024;-71
2022/11/23 07:44:21;;;;;;;18.55;3.10;;;9.10;99.90;;;;;;5109563;28;20165;-71
2022/11/23 07:46:47;;;;;;;18.38;3.00;;;9.00;99.90;;;;;;5103211;28;20102;-71
2022/11/23 07:49:12;;;;;;;17.40;3.20;;;9.00;99.90;;;;;;5100649;28;20036;-71
2022/11/23 07:51:38;;;;;;;15.35;3.00;;;9.00;99.90;;;;;;5105499;28;20035;-72
2022/11/23 07:54:03;;;;;;;25.15;3.80;;;9.00;99.90;;;;;;5107758;28;20097;-71
2022/11/23 07:56:29;;;;;;;17.95;3.78;;;9.00;99.90;;;;;;5101772;28;20103;-72
2022/11/23 07:58:55;;;;;;;16.42;3.22;;;9.00;99.90;;;;;;5106960;28;20024;-71
2022/11/23 08:01:20;;;;;;;23.20;3.53;;;9.00;99.90;;;;;;5105627;28;20023;-71
2022/11/23 08:03:47;;;;;;;11.73;2.92;;;9.00;99.90;;;;;;5103909;28;20518;-71
2022/11/23 08:06:14;;;;;;;22.98;3.60;;;9.10;99.90;;;;;;5105461;28;20027;-72
2022/11/23 08:08:41;;;;;;;20.00;3.17;;;9.00;99.90;;;;;;5103672;28;20028;-71
2022/11/23 08:11:07;;;;;;;18.35;3.08;;;9.00;99.90;;;;;;5104670;28;20024;-72
2022/11/23 08:13:33;;;;;;;17.58;3.42;;;9.00;99.90;;;;;;5111628;28;20525;-72
2022/11/23 08:16:00;;;;;;;18.67;3.00;;;9.00;99.90;;;;;;5097896;28;20027;-72
2022/11/23 08:18:26;;;;;;;20.83;3.58;;;9.10;99.90;;;;;;5086304;28;20073;-71
2022/11/23 08:20:52;;;;;;;13.93;2.90;;;9.10;99.90;;;;;;5109695;28;20107;-72
2022/11/23 08:23:19;;;;;;;18.02;3.38;;;9.10;99.90;;;;;;5105203;27;20040;-71
2022/11/23 08:25:44;;;;;;;16.58;2.95;;;9.10;99.90;;;;;;5106896;28;20422;-72
2022/11/23 08:28:11;;;;;;;11.98;2.75;;;9.00;99.90;;;;;;5103243;28;20034;-71
2022/11/23 08:30:37;;;;;;;17.70;3.30;;;9.00;99.90;;;;;;5092489;28;20069;-68
2022/11/23 08:33:07;;;;;;;17.30;3.47;;;9.00;99.90;;;;;;5100952;28;20062;-68
2022/11/23 08:35:37;;;;;;;14.05;3.17;;;9.10;99.90;;;;;;5099793;28;20072;-67
2022/11/23 08:38:03;;;;;;;11.48;2.63;;;9.10;99.90;;;;;;5100233;28;20031;-68
2022/11/23 08:40:29;;;;;;;15.40;2.78;;;9.10;99.90;;;;;;5100926;28;20024;-70
2022/11/23 08:42:55;;;;;;;18.52;3.15;;;9.10;99.90;;;;;;5103383;28;20373;-68
2022/11/23 08:45:21;;;;;;;16.42;2.97;;;9.10;99.90;;;;;;5102147;28;20028;-69
2022/11/23 08:47:47;;;;;;;10.73;2.53;;;9.10;99.90;;;;;;5102309;28;20039;-69
2022/11/23 08:50:13;;;;;;;17.13;3.40;;;9.10;99.90;;;;;;5106868;28;20083;-68
2022/11/23 08:52:39;;;;;;;11.77;2.83;;;9.20;99.90;;;;;;5105618;28;20073;-68
2022/11/23 08:55:05;;;;;;;10.27;2.92;;;9.20;99.90;;;;;;5105424;28;20017;-69
2022/11/23 08:57:31;;;;;;;13.18;2.70;;;9.20;99.90;;;;;;5099679;28;20035;-68
2022/11/23 08:59:56;;;;;;;15.52;3.63;;;9.20;99.90;;;;;;5104460;28;20063;-69
2022/11/23 09:02:22;;;;;;;9.32;2.35;;;9.20;99.90;;;;;;5108032;28;20042;-67
2022/11/23 09:04:48;;;;;;;11.75;2.65;;;9.20;99.90;;;;;;5108209;28;20024;-69
2022/11/23 09:07:13;;;;;;;17.95;3.47;;;9.30;99.90;;;;;;5105206;28;20384;-67
2022/11/23 09:09:39;;;;;;;14.70;3.50;;;9.30;99.90;;;;;;5101280;28;20580;-69
2022/11/23 09:12:05;;;;;;;20.02;3.38;;;9.30;99.90;;;;;;5104551;28;20031;-68
2022/11/23 09:14:31;;;;;;;11.63;2.53;;;9.30;99.90;;;;;;5087678;28;20511;-67
2022/11/23 09:16:56;;;;;;;17.77;2.95;;;9.40;99.90;;;;;;5107462;28;20646;-67
2022/11/23 09:19:22;;;;;;;14.57;2.42;;;9.30;99.90;;;;;;5109152;27;20483;-68
2022/11/23 09:21:48;;;;;;;13.05;3.20;;;9.40;99.90;;;;;;5109355;28;20023;-69
2022/11/23 09:24:14;;;;;;;14.38;2.83;;;9.40;99.90;;;;;;5105697;28;20036;-67
2022/11/23 09:26:39;;;;;;;12.18;2.30;;;9.30;99.90;;;;;;5093844;28;20035;-70
2022/11/23 09:29:06;;;;;;;12.15;3.10;;;9.40;99.90;;;;;;5103502;28;20028;-68
2022/11/23 09:31:32;;;;;;;11.50;2.28;;;9.50;99.90;;;;;;5112084;28;20392;-68
2022/11/23 09:33:58;;;;;;;16.85;2.92;;;9.60;99.90;;;;;;5104572;28;20028;-73
2022/11/23 09:36:24;;;;;;;21.08;3.47;;;9.60;99.90;;;;;;5112486;28;20068;-73
2022/11/23 09:38:50;;;;;;;17.50;2.83;;;9.60;99.90;;;;;;5114680;28;20368;-72
2022/11/23 09:41:51;;;;;;;9.77;2.10;;;9.60;99.90;;;;;;5107914;28;20027;-73
2022/11/23 09:44:37;;;;;;;12.65;2.65;;;9.70;99.90;;;;;;5113215;28;20032;-72
2022/11/23 09:47:47;;;;;;;12.82;2.47;;;9.80;99.90;;;;;;5111016;28;20024;-68
2022/11/23 09:50:43;;;;;;;17.00;2.75;;;9.80;99.90;;;;;;5109544;28;20466;-73
2022/11/23 09:53:13;;;;;;;15.75;2.97;;;9.90;99.90;;;;;;5110286;28;20032;-74
2022/11/23 09:55:41;;;;;;;16.67;3.50;;;9.90;99.90;;;;;;5108732;28;20511;-73
2022/11/23 09:58:14;;;;;;;22.30;3.60;;;10.10;99.90;;;;;;5090639;28;20430;-73
2022/11/23 10:00:46;;;;;;;;;;;10.10;99.90;;;;;;5102903;27;20099;-73
2022/11/23 10:03:17;;;;;;;14.18;3.05;;;10.20;99.90;;;;;;5103783;28;19963;-73
2022/11/23 10:06:01;;;;;;;8.20;2.70;;;10.30;99.90;;;;;;5108266;28;20605;-73
2022/11/23 10:08:47;;;;;;;5.57;1.92;;;10.40;99.90;;;;;;5108513;28;20032;-72
2022/11/23 10:11:41;;;;;;;11.77;2.08;;;10.40;99.90;;;;;;5112416;28;20051;-72
2022/11/23 10:14:12;;;;;;;11.10;2.03;;;10.40;99.90;;;;;;5029362;28;20039;-70
2022/11/23 10:16:51;;;;;;;10.52;2.30;;;10.40;99.90;;;;;;5100434;28;20031;-73
2022/11/23 10:19:28;;;;;;;11.02;2.05;;;10.40;99.90;;;;;;5097306;28;20149;-73
2022/11/23 10:22:15;;;;;;;13.60;2.97;;;10.40;99.90;;;;;;5097243;28;20036;-73
2022/11/23 10:24:49;;;;;;;9.80;2.53;;;10.50;99.90;;;;;;5079375;28;20085;-70
2022/11/23 10:27:20;;;;;;;13.23;1.98;;;10.60;99.90;;;;;;5093538;28;20126;-71
2022/11/23 10:29:46;;;;;;;10.27;2.20;;;10.70;99.90;;;;;;5099532;28;20426;-72
2022/11/23 10:32:29;;;;;;;7.00;1.85;;;10.70;99.90;;;;;;5101420;28;20055;-73
2022/11/23 10:35:15;;;;;;;13.98;2.30;;;10.80;99.90;;;;;;5100611;28;20028;-70
2022/11/23 10:37:41;;;;;;;13.18;2.05;;;10.80;99.90;;;;;;5099064;28;20550;-75
2022/11/23 10:40:23;;;;;;;9.35;2.95;;;10.70;99.90;;;;;;5099701;28;20465;-73
2022/11/23 10:43:03;;;;;;;12.30;3.80;;;10.80;99.90;;;;;;5094230;28;20059;-73
2022/11/23 10:45:29;;;;;;;14.63;4.50;;;10.80;99.90;;;;;;5100256;28;20088;-73
2022/11/23 10:47:59;;;;;;;7.75;2.38;;;10.70;99.90;;;;;;5099554;28;20031;-73
2022/11/23 10:50:26;;;;;;;17.73;3.20;;;10.80;99.90;;;;;;5098095;28;20543;-70
2022/11/23 10:53:13;;;;;;;11.70;2.08;;;10.70;99.90;;;;;;5095470;28;20023;-74
2022/11/23 10:55:53;;;;;;;9.18;1.77;;;10.70;99.90;;;;;;5098173;28;20081;-73
2022/11/23 10:58:33;;;;;;;7.18;1.85;;;10.80;99.90;;;;;;5098902;28;20410;-71
2022/11/23 11:01:23;;;;;;;7.38;1.65;;;10.80;99.90;;;;;;5098669;28;20084;-74
2022/11/23 11:04:05;;;;;;;9.98;1.65;;;10.80;99.90;;;;;;5095056;28;20399;-70
2022/11/23 11:06:33;;;;;;;6.90;1.48;;;10.80;99.90;;;;;;5096636;28;20061;-75
2022/11/23 11:09:04;;;;;;;6.28;1.27;;;10.80;99.90;;;;;;5094513;28;20198;-75
2022/11/23 11:11:32;;;;;;;5.63;1.42;;;11.00;99.90;;;;;;5096408;28;20035;-74
2022/11/23 11:14:16;;;;;;;12.27;1.38;;;10.90;99.90;;;;;;5075554;28;20032;-68
2022/11/23 11:16:51;;;;;;;5.00;1.48;;;10.90;99.90;;;;;;5095129;28;20493;-73
2022/11/23 11:19:33;;;;;;;6.95;1.65;;;11.00;99.90;;;;;;5095466;28;20043;-76
2022/11/23 11:22:01;;;;;;;6.18;1.52;;;11.00;99.90;;;;;;5097350;28;20564;-70
2022/11/23 11:24:37;;;;;;;4.72;1.23;;;11.00;99.90;;;;;;5097461;28;20016;-75
2022/11/23 11:27:12;;;;;;;10.50;1.65;;;11.00;99.90;;;;;;5097485;28;20421;-74
2022/11/23 11:29:49;;;;;;;4.75;1.38;;;11.10;99.90;;;;;;5098019;28;20055;-69
2022/11/23 11:32:36;;;;;;;5.50;1.38;;;11.10;99.90;;;;;;5100207;28;20510;-75
2022/11/23 11:35:19;;;;;;;7.45;1.33;;;11.20;99.90;;;;;;5097494;28;20042;-71
2022/11/23 11:37:47;;;;;;;7.72;1.38;;;11.20;99.90;;;;;;5080766;28;20085;-71
2022/11/23 11:40:37;;;;;;;4.80;1.20;;;11.20;99.90;;;;;;5097614;28;20016;-77
2022/11/23 11:43:10;;;;;;;5.00;1.23;;;11.30;99.90;;;;;;5082216;28;20044;-72
2022/11/23 11:45:44;;;;;;;6.78;1.85;;;11.30;99.90;;;;;;5100446;28;20111;-76
2022/11/23 11:48:34;;;;;;;5.00;1.52;;;11.20;99.90;;;;;;5083739;28;20028;-69
2022/11/23 11:51:05;;;;;;;9.60;1.23;;;11.30;99.90;;;;;;5080524;28;20103;-72
2022/11/23 11:53:39;;;;;;;11.60;1.90;;;11.30;99.90;;;;;;5099515;28;20020;-71
2022/11/23 11:56:24;;;;;;;6.63;1.00;;;11.30;99.90;;;;;;5099586;28;20070;-74
2022/11/23 11:59:41;;;;;;;6.85;1.50;;;11.30;99.90;;;;;;5079245;28;20032;-71
2022/11/23 12:02:27;;;;;;;3.58;0.80;;;11.30;99.90;;;;;;5077807;28;20044;-68
2022/11/23 12:05:14;;;;;;;4.82;1.10;;;11.20;99.90;;;;;;5098380;28;20035;-72
2022/11/23 12:08:09;;;;;;;3.50;0.80;;;11.20;99.90;;;;;;5095396;28;20121;-68
2022/11/23 12:10:54;;;;;;;4.70;1.02;;;11.40;99.90;;;;;;5094165;28;20154;-71
2022/11/23 12:13:37;;;;;;;4.10;1.35;;;11.30;99.90;;;;;;5095330;28;20028;-68
2022/11/23 12:16:33;;;;;;;3.35;1.15;;;11.30;99.90;;;;;;5099876;28;20052;-67
2022/11/23 12:19:11;;;;;;;5.75;1.25;;;11.30;99.90;;;;;;5096786;28;20067;-68
2022/11/23 12:21:49;;;;;;;5.72;1.02;;;11.30;99.90;;;;;;5097513;28;20032;-79
2022/11/23 12:24:46;;;;;;;6.00;1.05;;;11.40;99.90;;;;;;5095826;28;20099;-75
2022/11/23 12:27:50;;;;;;;5.72;1.55;;;11.40;99.90;;;;;;5077655;28;20052;-78
2022/11/23 12:30:29;;;;;;;;;;;11.40;99.90;;;;;;5096225;28;20027;-77
2022/11/23 12:33:07;;;;;;;10.23;1.42;;;11.50;99.90;;;;;;5093120;28;19953;-71
2022/11/23 12:35:57;;;;;;;5.82;1.20;;;11.50;99.90;;;;;;5097152;28;20032;-72
2022/11/23 12:38:26;;;;;;;6.50;1.20;;;11.50;99.90;;;;;;5103314;28;20030;-73
2022/11/23 12:41:23;;;;;;;6.47;1.40;;;11.60;99.90;;;;;;5101818;28;20024;-71
2022/11/23 12:43:58;;;;;;;5.85;1.30;;;11.50;99.90;;;;;;5097483;28;20058;-71
2022/11/23 12:46:45;;;;;;;5.18;1.23;;;11.60;99.90;;;;;;5085185;28;20145;-70
2022/11/23 12:49:38;;;;;;;5.93;1.67;;;11.50;99.90;;;;;;5097316;28;20067;-73
2022/11/23 12:52:34;;;;;;;7.40;1.42;;;11.60;99.90;;;;;;5110412;28;20395;-71
2022/11/23 12:55:05;;;;;;;5.78;1.40;;;11.60;99.90;;;;;;5110477;27;20019;-81
2022/11/23 12:57:41;;;;;;;5.65;1.30;;;11.70;99.90;;;;;;5096374;28;20490;-74